createdAt,value
2022-09-11T00:01:43.233Z,100635.91
2022-09-11T00:04:12.909Z,100625.25
2022-09-11T00:06:43.861Z,100624.38
2022-09-11T00:09:14.411Z,100636.00
2022-09-11T00:11:44.727Z,100631.59
2022-09-11T00:14:14.841Z,100625.34
2022-09-11T00:16:47.172Z,100626.28
2022-09-11T00:19:18.937Z,100622.75
2022-09-11T00:21:50.468Z,100619.19
2022-09-11T00:24:20.677Z,100619.19
2022-09-11T00:26:49.980Z,100612.06
2022-09-11T00:29:19.700Z,100615.72
2022-09-11T00:31:49.217Z,100614.84
2022-09-11T00:34:18.659Z,100621.25
2022-09-11T00:36:48.335Z,100612.41
2022-09-11T00:39:18.090Z,100614.31
2022-09-11T00:41:49.536Z,100615.34
2022-09-11T00:44:56.210Z,100614.56
2022-09-11T00:47:25.380Z,100614.66
2022-09-11T00:49:58.541Z,100616.56
2022-09-11T00:52:34.402Z,100614.81
2022-09-11T00:55:07.663Z,100612.22
2022-09-11T00:57:44.458Z,100597.06
2022-09-11T01:00:14.842Z,100609.63
2022-09-11T01:02:48.521Z,100607.03
2022-09-11T01:05:19.483Z,100605.28
2022-09-11T01:07:50.922Z,100599.03
2022-09-11T01:10:20.167Z,100600.94
2022-09-11T01:13:01.560Z,100596.44
2022-09-11T01:15:37.666Z,100603.63
2022-09-11T01:18:15.353Z,100596.53
2022-09-11T01:21:02.734Z,100599.22
2022-09-11T01:24:00.168Z,100596.59
2022-09-11T01:27:01.906Z,100590.38
2022-09-11T01:29:40.116Z,100590.38
2022-09-11T01:32:18.898Z,100586.03
2022-09-11T01:34:54.478Z,100587.84
2022-09-11T01:37:27.175Z,100590.53
2022-09-11T01:40:01.727Z,100585.25
2022-09-11T01:42:37.024Z,100581.69
2022-09-11T01:45:12.824Z,100577.25
2022-09-11T01:47:46.130Z,100570.94
2022-09-11T01:50:19.637Z,100577.25
2022-09-11T01:52:53.467Z,100574.56
2022-09-11T01:55:29.215Z,100569.19
2022-09-11T01:58:06.583Z,100565.66
2022-09-11T02:00:41.462Z,100577.25
2022-09-11T02:03:17.747Z,100575.53
2022-09-11T02:05:53.564Z,100569.28
2022-09-11T02:08:31.257Z,100576.47
2022-09-11T02:11:07.249Z,100564.00
2022-09-11T02:13:41.934Z,100570.25
2022-09-11T02:16:20.040Z,100570.31
2022-09-11T02:18:58.288Z,100558.72
2022-09-11T02:21:27.848Z,100564.94
2022-09-11T02:23:57.012Z,100572.16
2022-09-11T02:26:28.463Z,100565.91
2022-09-11T02:28:57.853Z,100573.97
2022-09-11T02:31:29.004Z,100568.59
2022-09-11T02:33:59.065Z,100573.09
2022-09-11T02:36:54.880Z,100565.91
2022-09-11T02:39:48.533Z,100566.84
2022-09-11T02:42:34.221Z,100572.22
2022-09-11T02:45:15.983Z,100573.09
2022-09-11T02:47:56.795Z,100572.16
2022-09-11T02:50:34.867Z,100570.31
2022-09-11T02:53:08.623Z,100576.56
2022-09-11T02:55:50.132Z,100572.06
2022-09-11T02:58:26.920Z,100564.00
2022-09-11T03:00:59.554Z,100564.88
2022-09-11T03:03:30.279Z,100565.72
2022-09-11T03:05:59.544Z,100561.22
2022-09-11T03:08:28.560Z,100566.59
2022-09-11T03:10:57.421Z,100568.34
2022-09-11T03:13:27.119Z,100567.47
2022-09-11T03:15:55.994Z,100573.78
2022-09-11T03:18:25.329Z,100566.59
2022-09-11T03:20:55.576Z,100568.41
2022-09-11T03:23:25.534Z,100564.00
2022-09-11T03:25:55.614Z,100575.63
2022-09-11T03:28:25.525Z,100579.94
2022-09-11T03:30:54.438Z,100578.22
2022-09-11T03:33:28.141Z,100575.44
2022-09-11T03:35:58.515Z,100562.88
2022-09-11T03:38:27.520Z,100581.69
2022-09-11T03:40:58.423Z,100573.53
2022-09-11T03:43:27.338Z,100574.41
2022-09-11T03:45:56.247Z,100574.41
2022-09-11T03:48:26.184Z,100576.16
2022-09-11T03:50:55.053Z,100575.28
2022-09-11T03:53:25.748Z,100575.19
2022-09-11T03:55:55.038Z,100577.00
2022-09-11T03:58:24.504Z,100590.38
2022-09-11T04:00:53.668Z,100583.25
2022-09-11T04:03:22.803Z,100584.13
2022-09-11T04:05:59.345Z,100581.34
2022-09-11T04:08:33.607Z,100592.97
2022-09-11T04:11:06.757Z,100592.97
2022-09-11T04:13:40.156Z,100583.09
2022-09-11T04:16:14.708Z,100591.16
2022-09-11T04:18:46.974Z,100587.59
2022-09-11T04:21:18.936Z,100592.09
2022-09-11T04:23:56.478Z,100594.78
2022-09-11T04:26:28.703Z,100596.59
2022-09-11T04:29:03.449Z,100593.06
2022-09-11T04:31:32.441Z,100585.94
2022-09-11T04:34:01.306Z,100588.53
2022-09-11T04:36:34.235Z,100593.13
2022-09-11T04:39:05.187Z,100592.28
2022-09-11T04:41:34.969Z,100590.53
2022-09-11T04:44:05.642Z,100583.44
2022-09-11T04:46:41.119Z,100593.31
2022-09-11T04:49:11.855Z,100598.69
2022-09-11T04:51:41.737Z,100599.56
2022-09-11T04:54:17.986Z,100596.88
2022-09-11T04:56:48.930Z,100599.47
2022-09-11T04:59:22.343Z,100602.25
2022-09-11T05:02:04.687Z,100593.31
2022-09-11T05:04:36.196Z,100598.69
2022-09-11T05:07:05.539Z,100599.56
2022-09-11T05:09:35.812Z,100602.25
2022-09-11T05:12:06.889Z,100599.56
2022-09-11T05:14:37.996Z,100602.25
2022-09-11T05:17:07.913Z,100606.66
2022-09-11T05:19:41.319Z,100611.09
2022-09-11T05:22:11.040Z,100611.94
2022-09-11T05:24:45.368Z,100610.91
2022-09-11T05:27:14.446Z,100613.59
2022-09-11T05:29:44.166Z,100618.03
2022-09-11T05:32:15.061Z,100617.06
2022-09-11T05:34:44.272Z,100614.38
2022-09-11T05:37:16.835Z,100615.25
2022-09-11T05:39:50.168Z,100614.22
2022-09-11T05:42:22.197Z,100615.94
2022-09-11T05:44:55.122Z,100605.97
2022-09-11T05:47:26.448Z,100609.44
2022-09-11T05:49:57.743Z,100612.91
2022-09-11T05:52:29.806Z,100610.16
2022-09-11T05:55:00.264Z,100612.75
2022-09-11T05:57:32.906Z,100603.75
2022-09-11T06:00:06.480Z,100607.22
2022-09-11T06:02:39.224Z,100620.56
2022-09-11T06:05:10.009Z,100619.59
2022-09-11T06:07:40.266Z,100615.97
2022-09-11T06:10:12.003Z,100615.88
2022-09-11T06:12:42.621Z,100616.75
2022-09-11T06:15:30.134Z,100620.31
2022-09-11T06:18:02.099Z,100607.75
2022-09-11T06:20:31.462Z,100616.75
2022-09-11T06:23:02.635Z,100613.19
2022-09-11T06:25:35.885Z,100613.19
2022-09-11T06:28:05.478Z,100617.63
2022-09-11T06:30:35.770Z,100613.19
2022-09-11T06:33:04.842Z,100619.53
2022-09-11T06:35:33.991Z,100626.63
2022-09-11T06:38:04.174Z,100620.31
2022-09-11T06:40:34.545Z,100624.72
2022-09-11T06:43:05.363Z,100624.66
2022-09-11T06:45:34.899Z,100624.56
2022-09-11T06:48:04.409Z,100620.91
2022-09-11T06:50:40.276Z,100628.81
2022-09-11T06:53:10.224Z,100631.34
2022-09-11T06:55:44.099Z,100621.25
2022-09-11T06:58:17.127Z,100625.59
2022-09-11T07:00:46.263Z,100622.69
2022-09-11T07:03:16.296Z,100628.75
2022-09-11T07:05:48.160Z,100625.59
2022-09-11T07:08:19.811Z,100634.19
2022-09-11T07:10:54.440Z,100627.53
2022-09-11T07:13:24.770Z,100630.63
2022-09-11T07:16:01.915Z,100639.03
2022-09-11T07:18:36.384Z,100637.72
2022-09-11T07:21:08.345Z,100630.91
2022-09-11T07:23:38.183Z,100628.72
2022-09-11T07:26:11.449Z,100626.53
2022-09-11T07:28:41.711Z,100623.47
2022-09-11T07:31:16.360Z,100617.81
2022-09-11T07:33:51.621Z,100630.91
2022-09-11T07:36:23.694Z,100621.59
2022-09-11T07:38:55.634Z,100617.56
2022-09-11T07:41:31.636Z,100611.78
2022-09-11T07:44:06.567Z,100621.22
2022-09-11T07:46:36.400Z,100626.28
2022-09-11T07:49:10.134Z,100614.28
2022-09-11T07:51:41.478Z,100625.59
2022-09-11T07:54:12.287Z,100623.50
2022-09-11T07:56:44.618Z,100623.13
2022-09-11T07:59:14.495Z,100622.72
2022-09-11T08:01:46.221Z,100616.94
2022-09-11T08:04:19.304Z,100623.69
2022-09-11T08:06:48.371Z,100624.28
2022-09-11T08:09:23.302Z,100625.69
2022-09-11T08:11:58.936Z,100615.38
2022-09-11T08:14:29.205Z,100608.72
2022-09-11T08:17:03.257Z,100612.00
2022-09-11T08:19:33.969Z,100622.38
2022-09-11T08:22:04.263Z,100619.28
2022-09-11T08:24:38.076Z,100620.72
2022-09-11T08:27:08.993Z,100623.91
2022-09-11T08:29:42.659Z,100622.50
2022-09-11T08:32:13.388Z,100616.72
2022-09-11T08:34:43.529Z,100617.31
2022-09-11T08:37:13.399Z,100626.03
2022-09-11T08:39:42.502Z,100627.59
2022-09-11T08:42:17.080Z,100621.88
2022-09-11T08:44:51.442Z,100613.56
2022-09-11T08:47:41.483Z,100621.25
2022-09-11T08:50:21.243Z,100610.16
2022-09-11T08:52:51.622Z,100622.28
2022-09-11T08:55:32.160Z,100626.38
2022-09-11T08:58:15.512Z,100622.31
2022-09-11T09:00:53.132Z,100613.91
2022-09-11T09:03:46.701Z,100623.41
2022-09-11T09:06:40.014Z,100626.75
2022-09-11T09:09:20.525Z,100627.31
2022-09-11T09:11:55.863Z,100636.94
2022-09-11T09:15:01.879Z,100636.63
2022-09-11T09:17:40.235Z,100644.59
2022-09-11T09:20:16.642Z,100637.25
2022-09-11T09:22:53.143Z,100631.78
2022-09-11T09:25:25.152Z,100630.78
2022-09-11T09:28:03.104Z,100636.81
2022-09-11T09:30:43.873Z,100631.22
2022-09-11T09:33:28.660Z,100641.84
2022-09-11T09:36:00.900Z,100646.09
2022-09-11T09:38:32.211Z,100653.09
2022-09-11T09:41:28.223Z,100650.28
2022-09-11T09:44:04.837Z,100645.66
2022-09-11T09:46:42.554Z,100647.38
2022-09-11T09:49:14.276Z,100643.81
2022-09-11T09:51:43.979Z,100657.22
2022-09-11T09:54:17.720Z,100654.41
2022-09-11T09:56:54.706Z,100647.16
2022-09-11T09:59:30.093Z,100655.28
2022-09-11T10:02:00.954Z,100668.91
2022-09-11T10:04:30.490Z,100659.06
2022-09-11T10:07:10.763Z,100661.00
2022-09-11T10:09:48.308Z,100671.94
2022-09-11T10:12:21.730Z,100663.91
2022-09-11T10:14:55.161Z,100665.66
2022-09-11T10:17:33.255Z,100665.66
2022-09-11T10:20:23.074Z,100658.50
2022-09-11T10:22:53.075Z,100660.25
2022-09-11T10:25:26.621Z,100663.69
2022-09-11T10:28:03.511Z,100668.16
2022-09-11T10:30:35.305Z,100664.25
2022-09-11T10:33:16.494Z,100656.78
2022-09-11T10:35:53.227Z,100660.13
2022-09-11T10:38:29.069Z,100653.53
2022-09-11T10:41:07.939Z,100667.72
2022-09-11T10:43:42.393Z,100662.81
2022-09-11T10:46:30.107Z,100658.09
2022-09-11T10:49:09.151Z,100673.88
2022-09-11T10:51:43.140Z,100671.81
2022-09-11T10:54:26.283Z,100677.97
2022-09-11T10:57:05.518Z,100673.22
2022-09-11T10:59:42.446Z,100662.16
2022-09-11T11:02:23.903Z,100656.53
2022-09-11T11:04:54.753Z,100673.41
2022-09-11T11:07:37.884Z,100678.50
2022-09-11T11:10:23.515Z,100681.00
2022-09-11T11:13:08.016Z,100688.00
2022-09-11T11:15:48.965Z,100675.22
2022-09-11T11:18:33.818Z,100671.56
2022-09-11T11:21:15.210Z,100667.97
2022-09-11T11:24:12.194Z,100666.25
2022-09-11T11:26:54.590Z,100663.56
2022-09-11T11:29:54.221Z,100658.91
2022-09-11T11:32:48.611Z,100673.19
2022-09-11T11:35:26.546Z,100674.91
2022-09-11T11:38:04.559Z,100668.41
2022-09-11T11:40:37.893Z,100672.94
2022-09-11T11:43:12.455Z,100658.31
2022-09-11T11:45:46.068Z,100673.47
2022-09-11T11:48:18.705Z,100658.00
2022-09-11T11:50:51.612Z,100665.78
2022-09-11T11:53:26.778Z,100674.47
2022-09-11T11:56:04.587Z,100677.81
2022-09-11T11:58:48.226Z,100666.66
2022-09-11T12:01:25.027Z,100666.41
2022-09-11T12:04:02.665Z,100670.53
2022-09-11T12:06:31.670Z,100666.72
2022-09-11T12:09:03.316Z,100672.78
2022-09-11T12:11:34.761Z,100667.84
2022-09-11T12:14:04.542Z,100678.47
2022-09-11T12:16:36.707Z,100670.97
2022-09-11T12:19:15.040Z,100672.59
2022-09-11T12:22:06.811Z,100683.09
2022-09-11T12:24:58.757Z,100673.63
2022-09-11T12:28:01.185Z,100673.41
2022-09-11T12:30:31.124Z,100667.63
2022-09-11T12:33:02.271Z,100667.28
2022-09-11T12:35:41.629Z,100674.94
2022-09-11T12:38:24.220Z,100677.19
2022-09-11T12:40:59.884Z,100677.81
2022-09-11T12:43:48.169Z,100680.19
2022-09-11T12:46:54.242Z,100675.41
2022-09-11T12:49:25.951Z,100674.28
2022-09-11T12:51:57.546Z,100666.69
2022-09-11T12:54:29.864Z,100681.75
2022-09-11T12:57:06.373Z,100683.97
2022-09-11T12:59:39.159Z,100672.91
2022-09-11T13:02:27.056Z,100687.06
2022-09-11T13:04:58.066Z,100688.69
2022-09-11T13:07:34.854Z,100683.13
2022-09-11T13:10:10.703Z,100688.47
2022-09-11T13:12:51.933Z,100698.09
2022-09-11T13:15:37.419Z,100692.53
2022-09-11T13:18:29.855Z,100689.81
2022-09-11T13:21:01.091Z,100693.41
2022-09-11T13:23:30.736Z,100689.94
2022-09-11T13:25:59.986Z,100690.94
2022-09-11T13:28:31.799Z,100693.63
2022-09-11T13:31:05.358Z,100692.66
2022-09-11T13:33:35.003Z,100694.50
2022-09-11T13:36:06.954Z,100691.66
2022-09-11T13:38:38.203Z,100694.63
2022-09-11T13:41:15.212Z,100694.47
2022-09-11T13:43:48.552Z,100689.06
2022-09-11T13:46:23.379Z,100693.66
2022-09-11T13:48:58.465Z,100701.09
2022-09-11T13:51:32.703Z,100700.81
2022-09-11T13:54:10.529Z,100700.34
2022-09-11T13:56:48.655Z,100702.16
2022-09-11T13:59:39.536Z,100705.53
2022-09-11T14:02:24.588Z,100702.19
2022-09-11T14:04:59.106Z,100710.88
2022-09-11T14:07:29.048Z,100721.47
2022-09-11T14:10:03.704Z,100718.41
2022-09-11T14:12:51.961Z,100719.28
2022-09-11T14:15:30.552Z,100712.13
2022-09-11T14:18:01.929Z,100718.72
2022-09-11T14:20:31.266Z,100714.00
2022-09-11T14:23:06.537Z,100723.97
2022-09-11T14:25:36.648Z,100734.63
2022-09-11T14:28:05.821Z,100734.59
2022-09-11T14:30:38.060Z,100728.00
2022-09-11T14:33:25.764Z,100724.50
2022-09-11T14:36:05.787Z,100736.09
2022-09-11T14:38:38.930Z,100734.59
2022-09-11T14:41:08.962Z,100737.56
2022-09-11T14:43:39.976Z,100742.06
2022-09-11T14:46:10.434Z,100734.00
2022-09-11T14:48:43.221Z,100745.94
2022-09-11T14:51:13.800Z,100739.63
2022-09-11T14:53:45.433Z,100742.94
2022-09-11T14:56:14.839Z,100747.34
2022-09-11T14:58:43.913Z,100739.50
2022-09-11T15:01:15.508Z,100730.63
2022-09-11T15:03:44.827Z,100727.03
2022-09-11T15:06:20.540Z,100727.88
2022-09-11T15:08:50.082Z,100730.09
2022-09-11T15:11:19.290Z,100732.91
2022-09-11T15:14:13.447Z,100745.53
2022-09-11T15:16:38.681Z,100743.50
2022-09-11T15:19:08.223Z,100742.09
2022-09-11T15:21:37.949Z,100736.44
2022-09-11T15:24:07.429Z,100735.69
2022-09-11T15:26:37.369Z,100742.34
2022-09-11T15:29:10.037Z,100751.75
2022-09-11T15:31:40.678Z,100743.00
2022-09-11T15:34:11.545Z,100756.75
2022-09-11T15:36:41.617Z,100757.00
2022-09-11T15:39:14.761Z,100741.59
2022-09-11T15:41:44.520Z,100749.56
2022-09-11T15:44:19.997Z,100746.50
2022-09-11T15:46:51.154Z,100753.50
2022-09-11T15:49:22.779Z,100752.63
2022-09-11T15:51:53.815Z,100749.59
2022-09-11T15:54:23.993Z,100751.50
2022-09-11T15:56:53.949Z,100745.81
2022-09-11T15:59:23.339Z,100757.50
2022-09-11T16:01:54.113Z,100749.03
2022-09-11T16:04:26.398Z,100752.13
2022-09-11T16:06:56.624Z,100743.16
2022-09-11T16:09:27.377Z,100746.66
2022-09-11T16:11:57.081Z,100758.63
2022-09-11T16:14:28.307Z,100769.41
2022-09-11T16:16:59.160Z,100758.88
2022-09-11T16:19:29.758Z,100763.47
2022-09-11T16:22:01.173Z,100763.88
2022-09-11T16:24:32.915Z,100758.34
2022-09-11T16:27:02.288Z,100758.22
2022-09-11T16:29:59.044Z,100751.72
2022-09-11T16:32:29.256Z,100754.97
2022-09-11T16:34:59.750Z,100752.72
2022-09-11T16:37:32.828Z,100756.13
2022-09-11T16:40:03.970Z,100747.69
2022-09-11T16:42:33.997Z,100748.97
2022-09-11T16:45:03.106Z,100755.69
2022-09-11T16:47:33.417Z,100741.16
2022-09-11T16:50:07.411Z,100747.22
2022-09-11T16:52:40.421Z,100747.22
2022-09-11T16:55:13.079Z,100752.22
2022-09-11T16:57:42.397Z,100747.31
2022-09-11T17:00:14.305Z,100745.81
2022-09-11T17:02:47.758Z,100755.19
2022-09-11T17:05:18.033Z,100752.66
2022-09-11T17:07:47.721Z,100751.13
2022-09-11T17:10:16.750Z,100752.97
2022-09-11T17:12:45.810Z,100751.13
2022-09-11T17:15:14.788Z,100756.44
2022-09-11T17:17:47.570Z,100748.16
2022-09-11T17:20:17.260Z,100756.97
2022-09-11T17:22:47.271Z,100751.22
2022-09-11T17:25:18.471Z,100764.13
2022-09-11T17:27:48.804Z,100758.28
2022-09-11T17:30:17.890Z,100764.00
2022-09-11T17:32:49.740Z,100763.31
2022-09-11T17:35:19.256Z,100754.59
2022-09-11T17:37:48.663Z,100768.28
2022-09-11T17:40:18.055Z,100762.13
2022-09-11T17:42:49.341Z,100755.84
2022-09-11T17:45:18.377Z,100757.63
2022-09-11T17:47:49.743Z,100754.16
2022-09-11T17:50:18.845Z,100758.66
2022-09-11T17:52:47.889Z,100763.94
2022-09-11T17:55:16.964Z,100752.94
2022-09-11T17:57:52.514Z,100756.31
2022-09-11T18:00:23.363Z,100757.19
2022-09-11T18:02:56.787Z,100760.75
2022-09-11T18:05:26.016Z,100756.19
2022-09-11T18:08:00.149Z,100753.38
2022-09-11T18:10:30.640Z,100761.13
2022-09-11T18:13:00.447Z,100761.78
2022-09-11T18:15:29.384Z,100756.06
2022-09-11T18:18:00.727Z,100768.25
2022-09-11T18:20:29.720Z,100760.78
2022-09-11T18:22:59.756Z,100765.81
2022-09-11T18:25:30.227Z,100764.53
2022-09-11T18:27:59.879Z,100765.94
2022-09-11T18:30:29.827Z,100763.59
2022-09-11T18:33:01.259Z,100773.94
2022-09-11T18:35:30.374Z,100767.16
2022-09-11T18:38:00.047Z,100777.44
2022-09-11T18:40:29.302Z,100769.75
2022-09-11T18:43:00.007Z,100765.75
2022-09-11T18:45:30.670Z,100767.91
2022-09-11T18:48:02.000Z,100767.50
2022-09-11T18:50:31.557Z,100772.22
2022-09-11T18:53:00.516Z,100769.78
2022-09-11T18:55:30.703Z,100763.94
2022-09-11T18:58:00.344Z,100764.28
2022-09-11T19:00:29.796Z,100769.97
2022-09-11T19:03:01.425Z,100771.19
2022-09-11T19:05:31.638Z,100774.13
2022-09-11T19:08:01.889Z,100762.91
2022-09-11T19:10:32.506Z,100770.34
2022-09-11T19:13:01.569Z,100768.78
2022-09-11T19:15:32.221Z,100762.66
2022-09-11T19:18:05.949Z,100763.72
2022-09-11T19:20:35.525Z,100759.53
2022-09-11T19:23:04.363Z,100764.28
2022-09-11T19:25:35.350Z,100759.16
2022-09-11T19:28:04.816Z,100763.78
2022-09-11T19:30:34.822Z,100765.88
2022-09-11T19:33:05.183Z,100757.94
2022-09-11T19:35:34.924Z,100758.97
2022-09-11T19:38:03.968Z,100762.75
2022-09-11T19:40:32.904Z,100763.00
2022-09-11T19:43:01.928Z,100766.88
2022-09-11T19:45:31.014Z,100766.06
2022-09-11T19:48:00.332Z,100775.25
2022-09-11T19:50:35.741Z,100768.38
2022-09-11T19:53:04.817Z,100766.75
2022-09-11T19:55:35.249Z,100770.53
2022-09-11T19:58:04.708Z,100767.16
2022-09-11T20:00:36.465Z,100769.06
2022-09-11T20:03:05.909Z,100767.44
2022-09-11T20:05:40.521Z,100763.31
2022-09-11T20:08:12.875Z,100762.50
2022-09-11T20:10:48.090Z,100761.81
2022-09-11T20:13:17.508Z,100768.25
2022-09-11T20:15:46.380Z,100764.00
2022-09-11T20:18:15.818Z,100766.81
2022-09-11T20:20:46.153Z,100768.84
2022-09-11T20:23:15.315Z,100767.25
2022-09-11T20:25:44.146Z,100768.22
2022-09-11T20:28:13.927Z,100762.97
2022-09-11T20:30:43.775Z,100765.81
2022-09-11T20:33:13.572Z,100764.16
2022-09-11T20:35:42.443Z,100761.59
2022-09-11T20:38:12.840Z,100766.16
2022-09-11T20:40:43.888Z,100761.81
2022-09-11T20:43:12.979Z,100764.59
2022-09-11T20:45:41.782Z,100767.34
2022-09-11T20:48:10.604Z,100763.88
2022-09-11T20:50:39.693Z,100771.13
2022-09-11T20:53:08.533Z,100760.38
2022-09-11T20:55:38.834Z,100760.53
2022-09-11T20:58:08.023Z,100759.81
2022-09-11T21:00:38.394Z,100769.72
2022-09-11T21:03:07.435Z,100762.69
2022-09-11T21:05:37.319Z,100764.59
2022-09-11T21:08:06.421Z,100765.50
2022-09-11T21:10:38.536Z,100765.59
2022-09-11T21:13:07.781Z,100768.28
2022-09-11T21:15:41.785Z,100775.44
2022-09-11T21:18:11.157Z,100773.75
2022-09-11T21:20:40.296Z,100779.19
2022-09-11T21:23:09.401Z,100770.34
2022-09-11T21:25:42.934Z,100778.47
2022-09-11T21:28:11.930Z,100777.47
2022-09-11T21:30:41.011Z,100761.41
2022-09-11T21:33:09.840Z,100767.69
2022-09-11T21:35:39.719Z,100764.13
2022-09-11T21:38:08.854Z,100764.22
2022-09-11T21:40:37.950Z,100774.13
2022-09-11T21:43:08.946Z,100770.66
2022-09-11T21:45:37.986Z,100769.78
2022-09-11T21:48:07.111Z,100777.09
2022-09-11T21:50:36.222Z,100786.94
2022-09-11T21:53:05.244Z,100766.44
2022-09-11T21:55:39.260Z,100772.81
2022-09-11T21:58:10.087Z,100772.84
2022-09-11T22:00:42.961Z,100779.19
2022-09-11T22:03:13.193Z,100780.19
2022-09-11T22:05:43.251Z,100775.81
2022-09-11T22:08:13.256Z,100777.78
2022-09-11T22:10:43.749Z,100782.34
2022-09-11T22:13:14.744Z,100777.09
2022-09-11T22:15:44.392Z,100783.50
2022-09-11T22:18:13.582Z,100787.19
2022-09-11T22:20:43.628Z,100776.59
2022-09-11T22:23:16.266Z,100776.66
2022-09-11T22:25:46.026Z,100776.78
2022-09-11T22:28:17.090Z,100779.53
2022-09-11T22:30:46.436Z,100782.28
2022-09-11T22:33:15.269Z,100781.41
2022-09-11T22:35:47.725Z,100776.19
2022-09-11T22:38:18.651Z,100777.22
2022-09-11T22:40:53.634Z,100775.53
2022-09-11T22:43:24.199Z,100776.50
2022-09-11T22:45:53.705Z,100771.22
2022-09-11T22:48:23.031Z,100764.00
2022-09-11T22:50:52.057Z,100776.50
2022-09-11T22:53:21.034Z,100773.94
2022-09-11T22:55:50.236Z,100781.13
2022-09-11T22:58:19.368Z,100773.09
2022-09-11T23:00:50.661Z,100782.94
2022-09-11T23:03:20.220Z,100789.16
2022-09-11T23:06:06.310Z,100781.13
2022-09-11T23:08:39.499Z,100785.59
2022-09-11T23:11:09.257Z,100789.28
2022-09-11T23:13:38.345Z,100782.13
2022-09-11T23:16:15.894Z,100792.88
2022-09-11T23:18:45.861Z,100791.97
2022-09-11T23:21:15.483Z,100787.53
2022-09-11T23:23:45.314Z,100778.69
2022-09-11T23:26:15.364Z,100782.31
2022-09-11T23:28:44.339Z,100785.13
2022-09-11T23:31:17.367Z,100778.03
2022-09-11T23:33:46.835Z,100774.56
2022-09-11T23:36:16.956Z,100773.75
2022-09-11T23:38:47.020Z,100772.94
2022-09-11T23:41:16.353Z,100777.50
2022-09-11T23:43:45.635Z,100777.50
2022-09-11T23:46:16.707Z,100773.16
2022-09-11T23:48:45.924Z,100782.97
2022-09-11T23:51:15.690Z,100779.50
2022-09-11T23:53:47.589Z,100769.66
2022-09-11T23:56:16.960Z,100771.53
2022-09-11T23:58:46.494Z,100777.75
